createdAt,value
2022-08-08T00:00:52.850Z,24.89
2022-08-08T00:03:32.011Z,24.84
2022-08-08T00:06:06.180Z,24.74
2022-08-08T00:08:43.565Z,24.70
2022-08-08T00:11:47.082Z,24.74
2022-08-08T00:14:56.803Z,24.62
2022-08-08T00:18:03.853Z,24.55
2022-08-08T00:20:49.454Z,24.56
2022-08-08T00:23:42.334Z,24.47
2022-08-08T00:26:21.927Z,24.30
2022-08-08T00:28:57.275Z,24.35
2022-08-08T00:32:29.202Z,24.44
2022-08-08T00:35:03.913Z,24.39
2022-08-08T00:38:03.339Z,24.49
2022-08-08T00:41:09.797Z,24.40
2022-08-08T00:43:41.066Z,24.38
2022-08-08T00:46:56.362Z,24.33
2022-08-08T00:49:59.699Z,24.27
2022-08-08T00:52:40.236Z,24.22
2022-08-08T00:55:54.221Z,24.31
2022-08-08T00:58:54.705Z,24.31
2022-08-08T01:01:52.735Z,24.31
2022-08-08T01:04:42.320Z,24.21
2022-08-08T01:07:54.152Z,24.28
2022-08-08T01:10:28.534Z,24.30
2022-08-08T01:13:58.152Z,24.34
2022-08-08T01:17:02.022Z,24.37
2022-08-08T01:20:15.618Z,24.25
2022-08-08T01:23:05.480Z,24.18
2022-08-08T01:26:11.761Z,24.15
2022-08-08T01:28:59.983Z,23.97
2022-08-08T01:32:15.061Z,24.07
2022-08-08T01:34:56.608Z,24.15
2022-08-08T01:37:57.137Z,24.37
2022-08-08T01:40:42.436Z,24.22
2022-08-08T01:43:24.353Z,24.20
2022-08-08T01:46:01.086Z,24.15
2022-08-08T01:48:51.278Z,24.12
2022-08-08T01:52:53.274Z,24.13
2022-08-08T01:55:25.863Z,24.15
2022-08-08T01:58:11.906Z,24.06
2022-08-08T02:01:00.701Z,24.14
2022-08-08T02:04:01.909Z,24.14
2022-08-08T02:06:52.401Z,24.12
2022-08-08T02:10:01.920Z,24.18
2022-08-08T02:12:48.254Z,24.16
2022-08-08T02:15:27.357Z,24.07
2022-08-08T02:18:03.308Z,24.13
2022-08-08T02:21:08.067Z,24.19
2022-08-08T02:23:42.505Z,24.12
2022-08-08T02:26:15.752Z,24.07
2022-08-08T02:29:01.865Z,23.97
2022-08-08T02:32:04.635Z,23.98
2022-08-08T02:35:10.521Z,23.98
2022-08-08T02:37:57.153Z,24.05
2022-08-08T02:41:17.617Z,24.00
2022-08-08T02:44:38.946Z,23.95
2022-08-08T02:47:46.994Z,23.86
2022-08-08T02:50:26.146Z,23.89
2022-08-08T02:53:03.451Z,23.88
2022-08-08T02:56:01.411Z,23.90
2022-08-08T02:58:47.584Z,23.81
2022-08-08T03:01:53.398Z,23.78
2022-08-08T03:05:04.390Z,23.80
2022-08-08T03:07:59.981Z,23.77
2022-08-08T03:10:32.956Z,23.77
2022-08-08T03:15:58.111Z,23.90
2022-08-08T03:16:43.575Z,23.97
2022-08-08T03:19:20.090Z,23.98
2022-08-08T03:21:58.256Z,23.95
2022-08-08T03:24:28.923Z,23.90
2022-08-08T03:27:08.029Z,23.92
2022-08-08T03:29:56.281Z,23.95
2022-08-08T03:32:53.341Z,23.96
2022-08-08T03:35:33.066Z,23.94
2022-08-08T03:38:54.352Z,23.99
2022-08-08T03:40:52.118Z,24.00
2022-08-08T03:43:20.484Z,24.05
2022-08-08T03:46:06.781Z,24.04
2022-08-08T03:49:09.700Z,24.10
2022-08-08T03:51:40.371Z,24.19
2022-08-08T03:54:15.715Z,24.02
2022-08-08T03:58:35.471Z,23.96
2022-08-08T04:00:02.596Z,23.98
2022-08-08T04:02:52.241Z,23.99
2022-08-08T04:05:28.452Z,24.06
2022-08-08T04:07:58.290Z,23.94
2022-08-08T04:10:32.216Z,24.07
2022-08-08T04:13:03.769Z,24.12
2022-08-08T04:15:54.787Z,24.08
2022-08-08T04:18:32.239Z,24.10
2022-08-08T04:21:00.986Z,24.07
2022-08-08T04:23:33.187Z,24.03
2022-08-08T04:26:17.296Z,24.01
2022-08-08T04:28:46.966Z,24.03
2022-08-08T04:31:56.859Z,24.14
2022-08-08T04:34:02.333Z,24.19
2022-08-08T04:36:29.793Z,24.31
2022-08-08T04:39:48.003Z,24.26
2022-08-08T04:41:46.381Z,24.22
2022-08-08T04:44:14.417Z,24.34
2022-08-08T04:46:42.032Z,24.38
2022-08-08T04:49:11.561Z,24.42
2022-08-08T04:51:56.834Z,24.52
2022-08-08T04:54:39.623Z,24.53
2022-08-08T04:57:11.096Z,24.69
2022-08-08T04:59:42.083Z,24.76
2022-08-08T05:02:13.805Z,24.73
2022-08-08T05:04:44.590Z,24.79
2022-08-08T05:07:15.070Z,24.82
2022-08-08T05:09:43.368Z,24.78
2022-08-08T05:12:21.082Z,24.81
2022-08-08T05:14:49.715Z,24.80
2022-08-08T05:17:20.756Z,24.77
2022-08-08T05:20:09.425Z,24.74
2022-08-08T05:22:37.765Z,24.87
2022-08-08T05:25:05.999Z,24.86
2022-08-08T05:27:41.590Z,24.91
2022-08-08T05:30:12.115Z,24.94
2022-08-08T05:32:40.337Z,25.00
2022-08-08T05:35:09.630Z,24.89
2022-08-08T05:37:53.019Z,24.97
2022-08-08T05:40:28.088Z,24.99
2022-08-08T05:43:38.628Z,25.06
2022-08-08T05:46:07.605Z,25.12
2022-08-08T05:48:37.760Z,25.17
2022-08-08T05:51:13.487Z,25.20
2022-08-08T05:54:26.364Z,25.33
2022-08-08T05:56:42.407Z,25.36
2022-08-08T05:59:59.085Z,25.48
2022-08-08T06:02:43.422Z,25.55
2022-08-08T06:05:32.942Z,25.64
2022-08-08T06:08:10.017Z,25.65
2022-08-08T06:10:49.863Z,25.70
2022-08-08T06:13:22.555Z,25.77
2022-08-08T06:15:55.008Z,25.81
2022-08-08T06:18:26.923Z,25.87
2022-08-08T06:20:57.609Z,25.95
2022-08-08T06:23:49.072Z,26.02
2022-08-08T06:26:43.105Z,26.11
2022-08-08T06:29:26.713Z,26.15
2022-08-08T06:32:09.882Z,26.14
2022-08-08T06:34:39.742Z,26.23
2022-08-08T06:37:24.533Z,26.21
2022-08-08T06:39:57.032Z,26.27
2022-08-08T06:42:29.587Z,26.34
2022-08-08T06:44:58.708Z,26.39
2022-08-08T06:47:33.438Z,26.40
2022-08-08T06:50:04.154Z,26.22
2022-08-08T06:52:32.815Z,26.28
2022-08-08T06:55:01.196Z,26.43
2022-08-08T06:57:29.414Z,26.51
2022-08-08T07:00:13.136Z,26.50
2022-08-08T07:02:45.978Z,26.52
2022-08-08T07:05:24.545Z,26.44
2022-08-08T07:07:52.615Z,26.49
2022-08-08T07:10:24.955Z,26.42
2022-08-08T07:13:05.535Z,26.49
2022-08-08T07:16:05.285Z,26.60
2022-08-08T07:18:46.407Z,26.60
2022-08-08T07:21:23.152Z,26.68
2022-08-08T07:24:09.589Z,26.81
2022-08-08T07:26:38.235Z,26.84
2022-08-08T07:29:08.164Z,26.83
2022-08-08T07:31:40.636Z,26.88
2022-08-08T07:34:10.543Z,26.98
2022-08-08T07:36:50.463Z,27.07
2022-08-08T07:39:29.698Z,27.16
2022-08-08T07:42:13.471Z,27.13
2022-08-08T07:44:47.656Z,27.31
2022-08-08T07:47:17.696Z,27.31
2022-08-08T07:49:56.553Z,27.37
2022-08-08T07:52:27.227Z,27.42
2022-08-08T07:55:03.646Z,27.43
2022-08-08T07:57:48.496Z,27.46
2022-08-08T08:00:17.426Z,27.60
2022-08-08T08:03:12.472Z,27.78
2022-08-08T08:05:51.631Z,27.96
2022-08-08T08:08:27.594Z,28.08
2022-08-08T08:10:57.078Z,28.31
2022-08-08T08:13:43.111Z,28.50
2022-08-08T08:16:23.295Z,28.79
2022-08-08T08:19:12.820Z,28.91
2022-08-08T08:21:58.364Z,29.10
2022-08-08T08:24:32.207Z,29.47
2022-08-08T08:27:03.471Z,29.52
2022-08-08T08:29:33.286Z,29.82
2022-08-08T08:32:05.691Z,29.71
2022-08-08T08:34:35.764Z,29.86
2022-08-08T08:37:08.005Z,29.96
2022-08-08T08:39:59.554Z,30.20
2022-08-08T08:42:31.999Z,29.85
2022-08-08T08:45:20.882Z,30.39
2022-08-08T08:47:55.082Z,30.62
2022-08-08T08:50:33.314Z,30.70
2022-08-08T08:53:54.309Z,30.53
2022-08-08T08:56:02.188Z,30.44
2022-08-08T08:58:37.574Z,30.28
2022-08-08T09:01:10.163Z,30.07
2022-08-08T09:03:50.866Z,29.95
2022-08-08T09:06:34.169Z,29.85
2022-08-08T09:09:26.215Z,29.68
2022-08-08T09:12:07.586Z,29.44
2022-08-08T09:14:42.715Z,29.47
2022-08-08T09:17:18.965Z,29.38
2022-08-08T09:22:01.319Z,29.24
2022-08-08T09:22:36.130Z,28.86
2022-08-08T09:25:09.820Z,29.05
2022-08-08T09:27:56.461Z,29.10
2022-08-08T09:30:27.881Z,28.95
2022-08-08T09:33:13.227Z,28.91
2022-08-08T09:35:49.328Z,28.98
2022-08-08T09:38:53.298Z,29.08
2022-08-08T09:42:14.156Z,29.00
2022-08-08T09:44:33.936Z,29.00
2022-08-08T09:47:26.662Z,29.18
2022-08-08T09:50:01.421Z,29.19
2022-08-08T09:52:56.187Z,29.15
2022-08-08T09:56:01.863Z,29.20
2022-08-08T09:58:25.982Z,29.19
2022-08-08T10:01:15.521Z,29.13
2022-08-08T10:04:02.338Z,28.96
2022-08-08T10:06:35.716Z,28.92
2022-08-08T10:09:05.825Z,28.91
2022-08-08T10:12:28.027Z,28.78
2022-08-08T10:14:39.167Z,28.59
2022-08-08T10:17:57.266Z,28.69
2022-08-08T10:20:00.167Z,28.63
2022-08-08T10:22:29.814Z,28.67
2022-08-08T10:25:07.347Z,28.82
2022-08-08T10:27:43.921Z,28.75
2022-08-08T10:30:23.590Z,28.86
2022-08-08T10:33:00.768Z,28.91
2022-08-08T10:36:19.912Z,28.93
2022-08-08T10:38:19.755Z,28.83
2022-08-08T10:40:53.392Z,28.46
2022-08-08T10:43:23.017Z,28.52
2022-08-08T10:45:56.002Z,28.52
2022-08-08T10:48:58.316Z,28.48
2022-08-08T10:51:31.274Z,28.61
2022-08-08T10:54:08.490Z,28.38
2022-08-08T10:56:43.085Z,28.41
2022-08-08T10:59:14.041Z,28.20
2022-08-08T11:01:49.520Z,28.19
2022-08-08T11:04:29.694Z,27.88
2022-08-08T11:07:01.104Z,28.13
2022-08-08T11:09:32.185Z,28.23
2022-08-08T11:12:13.297Z,28.29
2022-08-08T11:14:49.353Z,28.31
2022-08-08T11:17:59.361Z,28.30
2022-08-08T11:20:10.864Z,28.53
2022-08-08T11:22:40.723Z,28.42
2022-08-08T11:25:14.540Z,28.49
2022-08-08T11:27:44.482Z,28.49
2022-08-08T11:30:24.395Z,28.51
2022-08-08T11:32:57.000Z,28.67
2022-08-08T11:35:43.406Z,28.71
2022-08-08T11:38:35.528Z,28.51
2022-08-08T11:41:01.152Z,28.57
2022-08-08T11:43:39.117Z,28.64
2022-08-08T11:46:14.276Z,28.70
2022-08-08T11:48:47.060Z,28.40
2022-08-08T11:51:30.162Z,28.22
2022-08-08T11:54:26.676Z,28.12
2022-08-08T11:56:56.798Z,27.99
2022-08-08T11:59:58.339Z,27.86
2022-08-08T12:02:33.660Z,27.71
2022-08-08T12:05:13.178Z,27.55
2022-08-08T12:07:52.222Z,27.59
2022-08-08T12:10:27.030Z,27.55
2022-08-08T12:13:12.105Z,27.40
2022-08-08T12:16:00.217Z,27.55
2022-08-08T12:18:28.656Z,27.42
2022-08-08T12:20:59.687Z,27.07
2022-08-08T12:23:43.174Z,27.29
2022-08-08T12:26:27.892Z,27.30
2022-08-08T12:29:21.177Z,27.18
2022-08-08T12:32:04.396Z,27.15
2022-08-08T12:34:37.652Z,27.13
2022-08-08T12:37:08.365Z,27.20
2022-08-08T12:40:00.650Z,27.31
2022-08-08T12:42:26.570Z,27.26
2022-08-08T12:45:53.780Z,27.21
2022-08-08T12:48:36.005Z,26.95
2022-08-08T12:50:57.445Z,27.00
2022-08-08T12:53:30.226Z,26.96
2022-08-08T12:56:19.073Z,27.00
2022-08-08T12:58:54.317Z,26.75
2022-08-08T13:01:36.927Z,27.02
2022-08-08T13:04:18.951Z,26.69
2022-08-08T13:07:00.828Z,26.81
2022-08-08T13:10:04.472Z,26.84
2022-08-08T13:12:44.455Z,26.39
2022-08-08T13:15:16.769Z,26.74
2022-08-08T13:17:53.989Z,26.97
2022-08-08T13:20:32.110Z,27.08
2022-08-08T13:23:30.753Z,26.84
2022-08-08T13:25:50.096Z,27.01
2022-08-08T13:28:31.909Z,27.16
2022-08-08T13:31:03.881Z,27.14
2022-08-08T13:33:42.629Z,27.24
2022-08-08T13:36:11.178Z,27.37
2022-08-08T13:38:39.820Z,27.41
2022-08-08T13:41:15.939Z,27.57
2022-08-08T13:43:46.701Z,27.76
2022-08-08T13:46:26.874Z,27.48
2022-08-08T13:49:11.643Z,27.43
2022-08-08T13:52:04.320Z,27.42
2022-08-08T13:54:44.091Z,27.35
2022-08-08T13:57:13.864Z,27.34
2022-08-08T13:59:48.254Z,27.28
2022-08-08T14:02:30.146Z,27.48
2022-08-08T14:05:22.279Z,27.57
2022-08-08T14:07:52.534Z,27.64
2022-08-08T14:10:33.130Z,27.45
2022-08-08T14:13:30.318Z,27.56
2022-08-08T14:16:07.860Z,27.58
2022-08-08T14:18:53.957Z,27.74
2022-08-08T14:21:31.448Z,27.82
2022-08-08T14:24:08.841Z,27.82
2022-08-08T14:26:43.226Z,27.74
2022-08-08T14:29:28.866Z,27.62
2022-08-08T14:32:10.067Z,27.47
2022-08-08T14:34:42.329Z,27.00
2022-08-08T14:37:12.890Z,27.12
2022-08-08T14:39:47.558Z,27.25
2022-08-08T14:42:26.793Z,27.20
2022-08-08T14:45:00.480Z,26.93
2022-08-08T14:47:34.390Z,27.03
2022-08-08T14:50:16.258Z,26.85
2022-08-08T14:53:13.475Z,26.58
2022-08-08T14:55:43.090Z,26.55
2022-08-08T14:58:16.487Z,26.54
2022-08-08T15:00:48.704Z,26.37
2022-08-08T15:03:17.373Z,26.49
2022-08-08T15:05:54.130Z,26.42
2022-08-08T15:08:35.283Z,26.46
2022-08-08T15:11:09.288Z,26.39
2022-08-08T15:14:01.744Z,25.97
2022-08-08T15:16:28.227Z,26.14
2022-08-08T15:18:55.882Z,26.28
2022-08-08T15:21:27.788Z,26.37
2022-08-08T15:23:58.462Z,26.47
2022-08-08T15:26:29.248Z,26.70
2022-08-08T15:28:57.387Z,26.80
2022-08-08T15:31:56.326Z,26.86
2022-08-08T15:34:28.944Z,26.77
2022-08-08T15:36:59.540Z,26.77
2022-08-08T15:39:31.681Z,26.63
2022-08-08T15:42:13.482Z,26.65
2022-08-08T15:44:45.661Z,26.36
2022-08-08T15:47:16.047Z,26.46
2022-08-08T15:49:48.624Z,26.54
2022-08-08T15:52:18.425Z,26.54
2022-08-08T15:54:51.497Z,26.15
2022-08-08T15:57:20.952Z,26.27
2022-08-08T16:00:05.259Z,26.39
2022-08-08T16:02:50.191Z,26.25
2022-08-08T16:05:23.550Z,26.15
2022-08-08T16:07:53.884Z,26.18
2022-08-08T16:13:11.834Z,26.27
2022-08-08T16:13:30.839Z,26.25
2022-08-08T16:16:09.434Z,26.20
2022-08-08T16:18:56.226Z,26.26
2022-08-08T16:21:30.539Z,26.00
2022-08-08T16:24:00.379Z,26.00
2022-08-08T16:26:34.037Z,25.98
2022-08-08T16:29:09.823Z,26.08
2022-08-08T16:31:41.848Z,26.16
2022-08-08T16:34:09.790Z,26.07
2022-08-08T16:36:38.184Z,26.11
2022-08-08T16:39:09.746Z,26.09
2022-08-08T16:41:51.361Z,26.03
2022-08-08T16:44:27.926Z,26.10
2022-08-08T16:47:40.054Z,26.16
2022-08-08T16:50:14.255Z,26.02
2022-08-08T16:55:03.145Z,25.87
2022-08-08T16:55:54.172Z,25.81
2022-08-08T16:58:25.738Z,25.72
2022-08-08T17:00:55.376Z,25.80
2022-08-08T17:03:59.107Z,25.69
2022-08-08T17:06:36.167Z,25.47
2022-08-08T17:09:00.578Z,25.56
2022-08-08T17:11:39.221Z,25.71
2022-08-08T17:14:19.013Z,25.82
2022-08-08T17:16:57.775Z,25.68
2022-08-08T17:19:28.969Z,25.57
2022-08-08T17:21:57.804Z,25.56
2022-08-08T17:24:30.893Z,25.56
2022-08-08T17:26:59.974Z,25.58
2022-08-08T17:29:28.475Z,25.27
2022-08-08T17:32:02.767Z,25.38
2022-08-08T17:34:53.487Z,25.26
2022-08-08T17:37:19.371Z,25.10
2022-08-08T17:40:05.616Z,24.82
2022-08-08T17:42:34.935Z,24.75
2022-08-08T17:45:02.595Z,25.25
2022-08-08T17:47:40.221Z,25.17
2022-08-08T17:50:09.697Z,25.25
2022-08-08T17:52:38.252Z,25.26
2022-08-08T17:56:06.931Z,24.91
2022-08-08T17:57:54.598Z,24.95
2022-08-08T18:00:30.589Z,24.48
2022-08-08T18:03:07.633Z,24.55
2022-08-08T18:05:48.223Z,24.52
2022-08-08T18:08:37.864Z,24.35
2022-08-08T18:11:15.243Z,24.28
2022-08-08T18:13:47.087Z,23.96
2022-08-08T18:16:17.261Z,24.07
2022-08-08T18:18:53.539Z,23.97
2022-08-08T18:21:35.650Z,24.10
2022-08-08T18:24:19.596Z,23.97
2022-08-08T18:26:54.630Z,23.91
2022-08-08T18:29:34.001Z,23.90
2022-08-08T18:32:07.255Z,23.77
2022-08-08T18:34:36.404Z,23.72
2022-08-08T18:37:06.498Z,23.56
2022-08-08T18:39:36.610Z,23.55
2022-08-08T18:42:12.936Z,23.43
2022-08-08T18:44:42.291Z,23.41
2022-08-08T18:47:25.015Z,23.35
2022-08-08T18:49:58.678Z,23.49
2022-08-08T18:52:30.087Z,23.33
2022-08-08T18:55:00.666Z,23.28
2022-08-08T18:57:41.856Z,23.30
2022-08-08T19:00:17.009Z,23.27
2022-08-08T19:02:55.318Z,23.15
2022-08-08T19:05:32.214Z,23.07
2022-08-08T19:08:25.339Z,23.23
2022-08-08T19:10:58.366Z,23.23
2022-08-08T19:13:52.494Z,23.25
2022-08-08T19:16:19.498Z,23.25
2022-08-08T19:18:52.908Z,23.24
2022-08-08T19:21:30.291Z,23.07
2022-08-08T19:24:01.377Z,23.26
2022-08-08T19:26:35.347Z,23.30
2022-08-08T19:29:04.047Z,22.94
2022-08-08T19:31:35.615Z,23.15
2022-08-08T19:34:36.787Z,23.03
2022-08-08T19:36:55.261Z,23.08
2022-08-08T19:39:30.692Z,23.01
2022-08-08T19:42:04.883Z,22.90
2022-08-08T19:44:45.815Z,22.76
2022-08-08T19:47:16.594Z,22.55
2022-08-08T19:50:00.615Z,22.51
2022-08-08T19:52:34.778Z,22.60
2022-08-08T19:55:06.305Z,22.82
2022-08-08T19:57:36.157Z,22.58
2022-08-08T20:00:11.451Z,22.80
2022-08-08T20:02:55.211Z,22.80
2022-08-08T20:06:15.281Z,22.90
2022-08-08T20:08:29.520Z,22.97
2022-08-08T20:10:58.296Z,23.04
2022-08-08T20:14:13.235Z,22.65
2022-08-08T20:16:13.939Z,22.74
2022-08-08T20:18:53.084Z,22.83
2022-08-08T20:21:25.559Z,22.84
2022-08-08T20:23:57.883Z,22.73
2022-08-08T20:26:33.580Z,22.89
2022-08-08T20:29:03.660Z,23.01
2022-08-08T20:32:07.307Z,22.99
2022-08-08T20:34:30.970Z,23.04
2022-08-08T20:37:03.554Z,22.89
2022-08-08T20:39:39.274Z,23.03
2022-08-08T20:42:29.037Z,22.92
2022-08-08T20:44:58.355Z,23.00
2022-08-08T20:47:26.387Z,22.92
2022-08-08T20:49:57.862Z,22.99
2022-08-08T20:52:28.079Z,23.07
2022-08-08T20:54:56.484Z,22.93
2022-08-08T20:57:25.396Z,22.93
2022-08-08T20:59:55.995Z,22.98
2022-08-08T21:02:25.668Z,23.14
2022-08-08T21:05:01.073Z,23.32
2022-08-08T21:08:33.652Z,23.38
2022-08-08T21:10:20.906Z,23.38
2022-08-08T21:12:52.944Z,23.51
2022-08-08T21:16:05.359Z,23.49
2022-08-08T21:18:11.750Z,23.46
2022-08-08T21:20:41.900Z,23.49
2022-08-08T21:23:10.134Z,23.51
2022-08-08T21:25:40.964Z,23.51
2022-08-08T21:28:15.636Z,23.47
2022-08-08T21:30:49.873Z,23.51
2022-08-08T21:33:20.608Z,23.58
2022-08-08T21:36:16.530Z,23.46
2022-08-08T21:38:36.779Z,23.52
2022-08-08T21:41:04.971Z,23.44
2022-08-08T21:43:34.184Z,23.38
2022-08-08T21:48:02.441Z,23.42
2022-08-08T21:48:56.302Z,23.48
2022-08-08T21:54:18.641Z,23.41
2022-08-08T21:54:48.482Z,23.34
2022-08-08T21:57:04.933Z,23.32
2022-08-08T22:00:01.286Z,23.32
2022-08-08T22:02:23.480Z,23.19
2022-08-08T22:04:53.074Z,23.37
2022-08-08T22:07:26.159Z,23.28
2022-08-08T22:10:02.520Z,23.35
2022-08-08T22:12:38.823Z,23.44
2022-08-08T22:15:07.709Z,23.37
2022-08-08T22:17:45.280Z,23.42
2022-08-08T22:20:23.729Z,23.30
2022-08-08T22:22:52.344Z,23.44
2022-08-08T22:25:25.677Z,23.57
2022-08-08T22:28:03.718Z,23.63
2022-08-08T22:30:52.867Z,23.62
2022-08-08T22:34:10.728Z,23.61
2022-08-08T22:36:12.456Z,23.68
2022-08-08T22:38:48.892Z,23.67
2022-08-08T22:41:21.624Z,23.66
2022-08-08T22:44:01.210Z,23.60
2022-08-08T22:46:32.919Z,23.52
2022-08-08T22:49:00.651Z,23.52
2022-08-08T22:51:29.246Z,23.60
2022-08-08T22:54:30.241Z,23.54
2022-08-08T22:56:50.340Z,23.52
2022-08-08T22:59:18.664Z,23.51
2022-08-08T23:02:02.349Z,23.48
2022-08-08T23:04:34.502Z,23.40
2022-08-08T23:07:03.383Z,23.34
2022-08-08T23:09:31.267Z,23.26
2022-08-08T23:12:28.252Z,23.31
2022-08-08T23:14:59.748Z,23.39
2022-08-08T23:17:46.475Z,23.32
2022-08-08T23:20:14.896Z,23.43
2022-08-08T23:22:47.471Z,23.36
2022-08-08T23:25:18.376Z,23.41
2022-08-08T23:27:46.817Z,23.41
2022-08-08T23:30:14.297Z,23.41
2022-08-08T23:32:44.295Z,23.51
2022-08-08T23:35:17.191Z,23.54
2022-08-08T23:38:01.131Z,23.50
2022-08-08T23:40:31.185Z,23.48
2022-08-08T23:42:58.523Z,23.45
2022-08-08T23:49:05.805Z,23.31
2022-08-08T23:49:06.330Z,23.37
2022-08-08T23:51:05.274Z,23.27
2022-08-08T23:54:05.319Z,23.33
2022-08-08T23:56:32.304Z,23.25
2022-08-08T23:59:02.477Z,23.31
